Time;durP1;ratioP1;P1;durP2;ratioP2;P2;SDS_P1;SDS_P2;PMS_P1;PMS_P2;Temp;Humidity;BMP_temperature;BMP_pressure;BME280_temperature;BME280_humidity;BME280_pressure;Samples;Min_cycle;Max_cycle;Signal;HPM_P1;HPM_P2
2021/04/18 00:02:27;;;;;;;73.60;39.30;;;;;;;5.90;81.35;99178.48;2226284;80;21255;-78
2021/04/18 00:05:28;;;;;;;72.37;39.73;;;;;;;5.92;81.36;99180.72;2226700;80;21125;-78
2021/04/18 00:08:29;;;;;;;68.73;38.20;;;;;;;5.93;81.32;99187.66;2226410;80;21279;-77
2021/04/18 00:11:30;;;;;;;63.60;38.43;;;;;;;5.92;81.41;99183.30;2226313;80;21098;-78
2021/04/18 00:14:32;;;;;;;69.73;38.20;;;;;;;5.96;81.26;99182.59;2226279;79;21173;-78
2021/04/18 00:17:34;;;;;;;64.70;38.10;;;;;;;5.93;81.24;99179.47;2226421;80;21078;-78
2021/04/18 00:20:35;;;;;;;62.03;37.00;;;;;;;5.91;81.26;99180.25;2226625;79;21098;-78
2021/04/18 00:23:36;;;;;;;69.20;37.13;;;;;;;5.93;81.31;99177.30;2226585;80;21422;-78
2021/04/18 00:26:37;;;;;;;63.50;36.90;;;;;;;5.93;81.31;99177.30;2226331;80;21363;-78
2021/04/18 00:29:38;;;;;;;62.30;35.97;;;;;;;5.95;81.33;99180.41;2226298;80;21379;-77
2021/04/18 00:32:39;;;;;;;68.70;36.90;;;;;;;5.94;81.49;99173.47;2234611;79;21564;-77
2021/04/18 00:35:40;;;;;;;73.47;38.10;;;;;;;5.92;81.48;99170.35;2257917;79;21065;-78
2021/04/18 00:38:41;;;;;;;76.63;37.80;;;;;;;5.92;81.48;99170.35;2258162;79;21105;-78
2021/04/18 00:41:42;;;;;;;83.30;39.70;;;;;;;5.93;81.28;99174.29;2258134;79;21093;-77
2021/04/18 00:44:44;;;;;;;80.73;37.40;;;;;;;5.90;81.26;99169.00;2258116;79;21371;-77
2021/04/18 00:47:45;;;;;;;66.13;36.97;;;;;;;5.87;81.29;99167.98;2258604;79;21109;-77
2021/04/18 00:50:46;;;;;;;89.70;38.53;;;;;;;5.87;81.42;99165.39;2257981;79;21101;-77
2021/04/18 00:53:47;;;;;;;82.83;38.37;;;;;;;5.88;81.23;99165.86;2257844;78;21271;-78
2021/04/18 00:56:48;;;;;;;76.50;36.97;;;;;;;5.89;81.71;99167.23;2257874;79;21108;-78
2021/04/18 00:59:49;;;;;;;86.63;34.90;;;;;;;5.89;81.71;99167.23;2257979;79;21480;-78
2021/04/18 01:02:50;;;;;;;99.27;36.93;;;;;;;5.90;81.42;99165.11;2257686;79;21231;-78
2021/04/18 01:05:51;;;;;;;93.40;38.23;;;;;;;5.91;81.41;99162.11;2258008;79;21121;-78
2021/04/18 01:08:52;;;;;;;76.70;33.27;;;;;;;5.94;81.40;99161.80;2257672;79;21085;-77
2021/04/18 01:11:53;;;;;;;66.77;35.57;;;;;;;5.94;81.19;99161.80;2257672;79;21393;-77
2021/04/18 01:14:55;;;;;;;73.50;36.23;;;;;;;5.98;81.53;99158.49;2257838;78;21108;-77
2021/04/18 01:17:56;;;;;;;63.73;35.03;;;;;;;5.98;81.53;99158.49;2257635;79;21406;-77
2021/04/18 01:20:57;;;;;;;91.90;37.37;;;;;;;6.00;81.24;99159.42;2257747;79;21093;-78
2021/04/18 01:23:58;;;;;;;62.93;34.00;;;;;;;6.03;81.25;99159.53;2257958;79;21097;-78
2021/04/18 01:27:00;;;;;;;79.43;38.60;;;;;;;6.06;81.14;99160.94;2257798;78;21112;-78
2021/04/18 01:30:01;;;;;;;71.33;36.23;;;;;;;6.03;81.14;99158.66;2257801;78;21359;-77
2021/04/18 01:33:03;;;;;;;63.63;36.93;;;;;;;6.05;81.10;99164.77;2257639;79;21137;-77
2021/04/18 01:36:04;;;;;;;61.57;37.50;;;;;;;6.09;81.14;99165.79;2258021;79;21057;-77
2021/04/18 01:39:05;;;;;;;65.57;38.33;;;;;;;6.09;81.14;99165.79;2257889;79;21140;-77
2021/04/18 01:42:06;;;;;;;66.30;38.23;;;;;;;6.11;81.02;99167.61;2257890;79;21108;-78
2021/04/18 01:45:07;;;;;;;63.53;36.73;;;;;;;6.10;80.97;99163.25;2257974;79;21113;-78
2021/04/18 01:48:09;;;;;;;65.20;37.33;;;;;;;6.14;80.94;99163.83;2258148;79;21219;-78
2021/04/18 01:51:10;;;;;;;66.57;37.17;;;;;;;6.12;80.79;99165.48;2257962;79;21354;-77
2021/04/18 01:54:11;;;;;;;69.83;37.50;;;;;;;6.12;80.78;99169.37;2258001;78;21113;-78
2021/04/18 01:57:12;;;;;;;66.03;39.57;;;;;;;6.10;80.76;99163.25;2258227;79;21073;-78
2021/04/18 02:00:13;;;;;;;63.43;36.93;;;;;;;6.12;80.83;99165.89;2258128;79;21089;-78
2021/04/18 02:03:14;;;;;;;62.67;36.13;;;;;;;6.12;80.82;99160.30;2258086;79;21247;-78
2021/04/18 02:06:15;;;;;;;62.60;37.53;;;;;;;6.15;80.75;99156.93;2258211;79;21109;-78
2021/04/18 02:09:16;;;;;;;61.77;36.07;;;;;;;6.15;80.79;99156.52;2258141;79;21100;-78
2021/04/18 02:12:17;;;;;;;60.47;35.93;;;;;;;6.17;80.81;99153.98;2257875;79;21109;-78
2021/04/18 02:15:18;;;;;;;57.80;36.80;;;;;;;6.18;80.81;99154.03;2258405;79;21108;-78
2021/04/18 02:18:21;;;;;;;60.20;35.77;;;;;;;6.19;80.74;99155.79;2257940;79;21080;-77
2021/04/18 02:21:22;;;;;;;58.27;36.60;;;;;;;6.18;80.72;99148.84;2257915;79;21398;-77
2021/04/18 02:24:23;;;;;;;60.67;37.00;;;;;;;6.19;80.49;99138.94;2258234;79;21085;-78
2021/04/18 02:27:26;;;;;;;54.60;34.73;;;;;;;6.19;80.49;99138.94;2257850;79;21215;-78
2021/04/18 02:30:27;;;;;;;59.37;35.83;;;;;;;6.18;80.55;99143.66;2257966;78;21367;-78
2021/04/18 02:33:28;;;;;;;59.07;36.00;;;;;;;6.18;80.58;99137.59;2257975;78;21164;-77
2021/04/18 02:36:29;;;;;;;56.77;33.67;;;;;;;6.17;80.55;99143.19;2257945;79;21105;-78
2021/04/18 02:39:30;;;;;;;55.77;33.50;;;;;;;6.16;80.43;99140.55;2258503;79;21085;-77
2021/04/18 02:42:31;;;;;;;56.40;35.00;;;;;;;6.14;80.47;99141.80;2258298;79;21117;-77
2021/04/18 02:45:32;;;;;;;53.97;34.27;;;;;;;6.15;80.47;99137.48;2258159;79;21254;-78
2021/04/18 02:48:33;;;;;;;52.00;33.13;;;;;;;6.15;80.47;99135.78;2257860;79;21107;-78
2021/04/18 02:51:34;;;;;;;53.37;34.40;;;;;;;6.15;80.28;99125.41;2258612;79;21096;-78
2021/04/18 02:54:37;;;;;;;48.77;32.23;;;;;;;6.15;80.28;99125.41;2257799;78;21529;-77
2021/04/18 02:57:38;;;;;;;50.83;33.00;;;;;;;6.14;80.42;99123.65;2258044;79;21089;-78
2021/04/18 03:00:39;;;;;;;45.47;29.63;;;;;;;6.15;80.46;99116.75;2258029;79;21104;-78
2021/04/18 03:03:40;;;;;;;46.77;30.47;;;;;;;6.13;80.62;99118.41;2258164;79;21129;-78
2021/04/18 03:06:42;;;;;;;48.10;31.63;;;;;;;6.13;80.62;99118.41;2257907;78;21344;-78
2021/04/18 03:09:43;;;;;;;49.63;31.83;;;;;;;6.09;80.16;99117.43;2258308;79;21096;-78
2021/04/18 03:12:44;;;;;;;48.03;31.17;;;;;;;6.05;80.24;99111.64;2258321;79;21160;-78
2021/04/18 03:15:46;;;;;;;47.10;31.07;;;;;;;6.05;80.24;99112.94;2258448;79;21418;-78
2021/04/18 03:18:47;;;;;;;52.50;33.67;;;;;;;6.03;80.27;99121.08;2258329;79;21108;-78
2021/04/18 03:21:48;;;;;;;43.27;29.90;;;;;;;6.02;80.24;99116.31;2258290;79;21136;-78
2021/04/18 03:24:49;;;;;;;47.40;30.50;;;;;;;6.04;80.26;99114.65;2258223;79;21093;-78
2021/04/18 03:27:50;;;;;;;44.73;30.53;;;;;;;6.02;80.24;99116.31;2258003;79;21399;-77
2021/04/18 03:30:51;;;;;;;46.07;31.73;;;;;;;6.04;80.33;99118.95;2258439;79;21087;-78
2021/04/18 03:33:52;;;;;;;47.77;30.50;;;;;;;6.01;80.62;99118.84;2258200;79;21161;-78
2021/04/18 03:36:53;;;;;;;43.80;28.67;;;;;;;6.01;80.62;99118.84;2258345;79;21116;-78
2021/04/18 03:39:54;;;;;;;45.73;30.53;;;;;;;6.03;80.34;99119.36;2258121;79;21057;-77
2021/04/18 03:42:55;;;;;;;45.17;30.43;;;;;;;6.04;80.26;99121.54;2258028;79;21109;-78
2021/04/18 03:45:56;;;;;;;45.07;29.47;;;;;;;6.04;80.37;99118.54;2258455;79;21119;-78
2021/04/18 03:48:57;;;;;;;49.07;30.97;;;;;;;6.05;80.27;99116.83;2257974;79;21100;-78
2021/04/18 03:51:58;;;;;;;44.77;30.73;;;;;;;6.00;80.15;99113.20;2258296;79;21101;-78
2021/04/18 03:54:59;;;;;;;47.37;31.20;;;;;;;5.95;80.64;99123.82;2258409;79;21089;-78
2021/04/18 03:58:00;;;;;;;48.80;32.10;;;;;;;5.96;80.25;99120.40;2258512;78;21105;-78
2021/04/18 04:01:01;;;;;;;45.03;28.10;;;;;;;5.96;80.25;99120.40;2258233;79;21128;-78
2021/04/18 04:04:02;;;;;;;44.90;30.03;;;;;;;5.98;80.47;99122.63;2258211;79;21121;-78
2021/04/18 04:07:04;;;;;;;45.00;29.73;;;;;;;5.98;80.37;99130.41;2258084;78;21105;-78
2021/04/18 04:10:05;;;;;;;46.10;29.97;;;;;;;5.95;80.34;99132.89;2258248;78;21100;-78
2021/04/18 04:13:06;;;;;;;42.37;29.73;;;;;;;5.95;80.40;99125.12;2258545;79;21140;-78
2021/04/18 04:16:07;;;;;;;42.53;28.53;;;;;;;5.98;80.43;99128.69;2258388;79;21097;-79
2021/04/18 04:19:09;;;;;;;45.20;29.40;;;;;;;6.02;80.45;99122.78;2258425;79;21394;-78
2021/04/18 04:22:10;;;;;;;40.90;28.10;;;;;;;6.09;80.19;99126.50;2258343;79;21116;-79
2021/04/18 04:25:11;;;;;;;40.90;27.43;;;;;;;6.13;80.20;99121.89;2258474;79;21106;-78
2021/04/18 04:28:14;;;;;;;41.47;27.57;;;;;;;6.13;80.20;99121.89;2258338;79;21105;-79
2021/04/18 04:31:15;;;;;;;40.07;26.60;;;;;;;6.14;80.12;99129.25;2258316;79;21061;-79
2021/04/18 04:34:17;;;;;;;41.33;28.27;;;;;;;6.15;80.20;99130.59;2245121;79;21130;-78
2021/04/18 04:37:18;;;;;;;41.57;27.57;;;;;;;6.16;80.14;99134.95;2226719;80;21105;-78
2021/04/18 04:40:19;;;;;;;37.07;25.50;;;;;;;6.17;80.21;99135.41;2226763;79;21227;-78
2021/04/18 04:43:20;;;;;;;39.00;25.90;;;;;;;6.24;80.08;99139.97;2226525;80;21125;-78
2021/04/18 04:46:21;;;;;;;41.40;26.43;;;;;;;6.29;80.08;99134.94;2227009;80;21364;-79
2021/04/18 04:49:23;;;;;;;37.47;25.57;;;;;;;6.33;79.91;99140.28;2227131;80;21431;-79
2021/04/18 04:52:24;;;;;;;37.40;25.83;;;;;;;6.36;79.79;99142.98;2227150;80;21264;-78
2021/04/18 04:55:25;;;;;;;38.80;26.50;;;;;;;6.38;79.71;99145.62;2226247;80;21125;-78
2021/04/18 04:58:26;;;;;;;37.83;26.73;;;;;;;6.41;79.73;99143.55;2226410;80;21059;-78
2021/04/18 05:01:27;;;;;;;38.70;26.97;;;;;;;6.47;79.77;99151.52;2226469;80;21089;-78
2021/04/18 05:04:28;;;;;;;36.30;26.60;;;;;;;6.49;79.69;99145.55;2226414;80;21251;-77
2021/04/18 05:07:29;;;;;;;39.33;26.10;;;;;;;6.54;79.68;99147.88;2226251;80;21133;-78
2021/04/18 05:10:30;;;;;;;42.40;27.73;;;;;;;6.59;79.52;99148.03;2226559;80;21106;-77
2021/04/18 05:13:31;;;;;;;39.20;27.30;;;;;;;6.61;79.38;99139.87;2226384;80;21137;-77
2021/04/18 05:16:32;;;;;;;40.10;27.43;;;;;;;6.67;79.20;99150.45;2226653;79;21114;-78
2021/04/18 05:19:33;;;;;;;42.57;29.33;;;;;;;6.73;79.00;99151.06;2226406;80;21118;-77
2021/04/18 05:22:35;;;;;;;47.03;31.20;;;;;;;6.73;79.00;99151.06;2226614;80;21364;-77
2021/04/18 05:25:36;;;;;;;43.57;29.53;;;;;;;6.78;79.17;99147.78;2226677;80;21105;-77
2021/04/18 05:28:37;;;;;;;43.90;29.17;;;;;;;6.85;79.10;99148.86;2226457;79;21129;-77
2021/04/18 05:31:38;;;;;;;42.27;29.47;;;;;;;6.96;78.98;99152.70;2226491;80;21082;-77
2021/04/18 05:34:39;;;;;;;41.17;28.97;;;;;;;6.99;78.78;99151.08;2226278;79;21439;-77
2021/04/18 05:37:40;;;;;;;44.00;29.43;;;;;;;7.07;78.70;99150.43;2226397;79;21090;-78
2021/04/18 05:40:41;;;;;;;43.10;29.43;;;;;;;7.24;78.63;99158.31;2226691;80;21129;-79
2021/04/18 05:43:42;;;;;;;46.87;30.10;;;;;;;7.42;78.32;99159.27;2226740;80;21390;-78
2021/04/18 05:46:43;;;;;;;52.03;31.33;;;;;;;7.58;78.08;99161.05;2226922;80;21113;-78
2021/04/18 05:49:45;;;;;;;47.03;29.17;;;;;;;7.72;78.01;99157.97;2226897;79;21102;-78
2021/04/18 05:52:46;;;;;;;49.37;31.47;;;;;;;7.87;77.79;99159.72;2226359;80;21153;-77
2021/04/18 05:55:47;;;;;;;45.17;28.67;;;;;;;7.98;77.38;99156.58;2226477;80;21114;-77
2021/04/18 05:58:48;;;;;;;40.50;27.97;;;;;;;8.17;77.14;99147.54;2226406;80;21359;-79
2021/04/18 06:01:49;;;;;;;42.63;27.90;;;;;;;8.47;76.62;99157.00;2226757;79;21156;-79
2021/04/18 06:04:50;;;;;;;37.63;24.47;;;;;;;8.91;75.78;99154.20;2226423;79;21333;-77
2021/04/18 06:07:51;;;;;;;42.60;26.10;;;;;;;9.33;73.97;99158.61;2226386;80;21102;-78
2021/04/18 06:10:52;;;;;;;35.83;23.77;;;;;;;9.60;74.41;99147.50;2226372;79;21434;-78
2021/04/18 06:13:53;;;;;;;34.47;22.90;;;;;;;9.98;73.32;99149.55;2226838;80;21153;-78
2021/04/18 06:16:54;;;;;;;31.73;22.03;;;;;;;10.26;71.89;99152.70;2227504;80;21102;-78
2021/04/18 06:19:55;;;;;;;31.45;21.68;;;;;;;10.33;70.29;99159.78;2226421;80;21364;-78
2021/04/18 06:22:56;;;;;;;32.90;21.83;;;;;;;10.15;70.27;99157.69;2226440;80;21074;-78
2021/04/18 06:25:57;;;;;;;25.30;18.90;;;;;;;10.06;71.30;99160.13;2226776;80;21094;-78
2021/04/18 06:28:59;;;;;;;28.12;19.55;;;;;;;10.04;70.40;99163.13;2226960;80;21217;-79
2021/04/18 06:32:00;;;;;;;25.60;17.95;;;;;;;10.12;70.40;99157.63;2226532;80;21379;-78
2021/04/18 06:35:01;;;;;;;27.23;18.23;;;;;;;10.17;69.09;99157.30;2241885;79;21132;-77
2021/04/18 06:38:02;;;;;;;20.23;15.88;;;;;;;10.02;69.45;99166.14;2258182;79;21231;-77
2021/04/18 06:41:03;;;;;;;21.82;15.95;;;;;;;9.97;68.60;99167.35;2257905;79;21093;-77
2021/04/18 06:44:04;;;;;;;21.37;15.53;;;;;;;9.95;68.30;99162.95;2258166;79;21109;-77
2021/04/18 06:47:06;;;;;;;32.53;24.90;;;;;;;9.88;68.97;99170.66;2257985;79;21107;-79
2021/04/18 06:50:07;;;;;;;25.43;17.95;;;;;;;9.82;68.56;99171.84;2258078;79;21065;-78
2021/04/18 06:53:08;;;;;;;18.70;14.83;;;;;;;9.73;69.26;99169.48;2258118;79;21101;-78
2021/04/18 06:56:10;;;;;;;15.07;12.43;;;;;;;9.71;68.09;99169.45;2258258;79;21081;-78
2021/04/18 06:59:11;;;;;;;14.10;12.03;;;;;;;9.57;67.85;99170.47;2257884;79;21293;-77
2021/04/18 07:02:12;;;;;;;16.47;11.90;;;;;;;9.49;68.54;99171.12;2257820;79;21379;-78
2021/04/18 07:05:13;;;;;;;14.63;11.63;;;;;;;9.49;68.75;99175.91;2258382;79;21101;-78
2021/04/18 07:08:15;;;;;;;13.67;11.90;;;;;;;9.53;68.53;99166.00;2258370;78;21140;-78
2021/04/18 07:11:16;;;;;;;12.73;11.50;;;;;;;9.72;68.56;99169.02;2257663;79;21093;-79
2021/04/18 07:14:17;;;;;;;15.80;11.63;;;;;;;9.89;67.41;99168.51;2257590;79;21164;-78
2021/04/18 07:17:18;;;;;;;13.80;11.40;;;;;;;9.96;66.17;99164.72;2257903;79;21212;-78
2021/04/18 07:20:19;;;;;;;13.13;11.83;;;;;;;10.09;66.50;99170.62;2258329;78;21061;-78
2021/04/18 07:23:20;;;;;;;13.03;10.80;;;;;;;10.34;66.95;99173.28;2257803;79;21066;-78
2021/04/18 07:26:22;;;;;;;12.90;10.38;;;;;;;10.53;65.68;99171.06;2257933;79;21096;-79
2021/04/18 07:29:23;;;;;;;13.27;10.93;;;;;;;10.60;63.22;99166.81;2258402;79;21108;-78
2021/04/18 07:32:24;;;;;;;12.88;11.15;;;;;;;10.52;65.16;99173.22;2257550;79;21065;-77
2021/04/18 07:35:25;;;;;;;14.05;10.58;;;;;;;10.58;65.08;99167.64;2240713;78;21142;-77
2021/04/18 07:38:27;;;;;;;12.25;11.03;;;;;;;10.60;65.10;99173.34;2225968;80;21118;-77
2021/04/18 07:41:28;;;;;;;13.40;12.00;;;;;;;10.50;62.68;99170.13;2226321;80;21101;-78
2021/04/18 07:44:29;;;;;;;15.50;13.58;;;;;;;10.28;63.91;99171.45;2225863;80;21066;-77
2021/04/18 07:47:30;;;;;;;17.27;14.58;;;;;;;10.22;64.99;99171.33;2226194;80;21125;-78
2021/04/18 07:50:31;;;;;;;20.40;16.37;;;;;;;10.16;64.76;99175.98;2226469;79;21122;-78
2021/04/18 07:53:32;;;;;;;20.60;15.67;;;;;;;10.09;65.33;99179.75;2226192;80;21156;-77
2021/04/18 07:56:33;;;;;;;20.43;16.30;;;;;;;10.03;65.60;99183.12;2226228;80;21078;-77
2021/04/18 07:59:34;;;;;;;23.17;16.00;;;;;;;9.93;64.89;99178.57;2226273;80;21106;-77
2021/04/18 08:02:35;;;;;;;20.90;16.43;;;;;;;9.78;64.74;99183.48;2226422;79;21074;-77
2021/04/18 08:05:36;;;;;;;20.33;15.43;;;;;;;9.71;65.09;99184.20;2226315;80;21102;-79
2021/04/18 08:08:37;;;;;;;19.48;14.35;;;;;;;9.82;65.22;99185.30;2226461;80;21066;-77
2021/04/18 08:11:38;;;;;;;18.70;15.03;;;;;;;9.91;64.20;99185.48;2226943;80;21479;-78
2021/04/18 08:14:39;;;;;;;17.57;14.60;;;;;;;9.97;63.58;99186.03;2226377;80;21138;-78
2021/04/18 08:17:41;;;;;;;19.20;14.10;;;;;;;10.15;63.89;99183.78;2226381;80;21105;-77
2021/04/18 08:20:42;;;;;;;16.07;14.00;;;;;;;10.31;62.11;99181.94;2226542;80;21368;-78
2021/04/18 08:23:43;;;;;;;19.43;15.13;;;;;;;10.36;62.93;99184.20;2226241;80;21102;-77
2021/04/18 08:26:44;;;;;;;20.45;15.80;;;;;;;10.40;63.03;99183.83;2226211;80;21063;-77
2021/04/18 08:29:45;;;;;;;16.00;13.50;;;;;;;10.49;63.96;99178.81;2226204;80;21117;-78
2021/04/18 08:32:46;;;;;;;18.40;14.78;;;;;;;10.74;63.09;99191.42;2226119;80;21404;-78
2021/04/18 08:35:48;;;;;;;30.15;21.25;;;;;;;10.93;63.28;99190.41;2243922;79;21278;-78
2021/04/18 08:38:49;;;;;;;26.65;21.00;;;;;;;11.01;63.14;99188.38;2257751;79;21105;-78
2021/04/18 08:41:50;;;;;;;30.35;22.45;;;;;;;11.08;62.76;99181.08;2257939;78;21097;-78
2021/04/18 08:44:51;;;;;;;22.70;18.15;;;;;;;11.11;62.75;99181.12;2257824;79;21113;-78
2021/04/18 08:47:53;;;;;;;19.82;16.75;;;;;;;11.22;62.56;99182.59;2257733;78;21356;-78
2021/04/18 08:50:54;;;;;;;18.75;16.48;;;;;;;11.39;61.98;99190.70;2258301;79;21077;-78
2021/04/18 08:53:55;;;;;;;19.30;15.18;;;;;;;11.53;61.46;99180.01;2257928;79;21136;-77
2021/04/18 08:56:56;;;;;;;21.68;15.90;;;;;;;11.58;60.42;99180.95;2257769;79;21093;-78
2021/04/18 08:59:57;;;;;;;21.35;16.67;;;;;;;11.48;60.04;99185.60;2257852;79;21113;-78
2021/04/18 09:02:59;;;;;;;23.25;18.32;;;;;;;11.35;60.88;99183.67;2258088;79;21112;-78
2021/04/18 09:06:00;;;;;;;25.57;18.15;;;;;;;11.07;60.73;99184.97;2257843;79;21414;-78
2021/04/18 09:09:02;;;;;;;84.83;49.60;;;;;;;10.77;61.06;99185.37;2257934;78;21116;-78
2021/04/18 09:12:03;;;;;;;24.10;18.85;;;;;;;10.54;61.18;99188.91;2257785;78;21378;-77
2021/04/18 09:15:04;;;;;;;25.12;18.48;;;;;;;10.33;61.32;99192.40;2257974;79;21152;-78
2021/04/18 09:18:05;;;;;;;23.35;18.02;;;;;;;10.36;61.92;99185.94;2257990;79;21061;-77
2021/04/18 09:21:06;;;;;;;24.30;19.48;;;;;;;10.77;61.58;99183.64;2257796;79;21093;-77
2021/04/18 09:24:07;;;;;;;19.02;16.37;;;;;;;11.29;61.66;99185.78;2257789;79;21112;-77
2021/04/18 09:27:09;;;;;;;21.55;16.73;;;;;;;11.69;60.49;99178.47;2257782;78;21125;-78
2021/04/18 09:30:10;;;;;;;20.75;17.45;;;;;;;11.76;59.72;99180.30;2257887;79;21395;-78
2021/04/18 09:33:11;;;;;;;20.95;17.40;;;;;;;11.69;59.73;99176.73;2258089;79;21160;-78
2021/04/18 09:36:12;;;;;;;17.62;15.43;;;;;;;11.74;59.61;99183.33;2257680;79;21101;-77
2021/04/18 09:39:13;;;;;;;18.67;15.25;;;;;;;11.84;58.95;99178.69;2257705;79;21112;-78
2021/04/18 09:42:14;;;;;;;19.00;16.27;;;;;;;11.80;56.93;99179.52;2257852;79;21377;-77
2021/04/18 09:45:15;;;;;;;20.30;15.72;;;;;;;11.83;57.82;99181.28;2257746;79;21243;-78
2021/04/18 09:48:17;;;;;;;17.55;15.35;;;;;;;11.97;57.96;99181.90;2257703;79;21109;-78
2021/04/18 09:51:19;;;;;;;17.70;15.65;;;;;;;12.09;57.55;99177.23;2257955;79;21085;-77
2021/04/18 09:54:20;;;;;;;16.20;14.45;;;;;;;12.17;57.52;99177.34;2257856;79;21144;-77
2021/04/18 09:57:22;;;;;;;16.73;14.55;;;;;;;12.26;55.96;99177.02;2258126;79;21215;-78
2021/04/18 10:00:23;;;;;;;18.25;16.02;;;;;;;12.32;56.40;99181.00;2257922;79;21104;-78
2021/04/18 10:03:24;;;;;;;17.30;15.30;;;;;;;12.45;56.88;99176.77;2257952;78;21461;-78
2021/04/18 10:06:26;;;;;;;16.35;14.38;;;;;;;12.89;56.78;99174.96;2258208;79;21219;-78
2021/04/18 10:09:27;;;;;;;13.45;12.05;;;;;;;13.10;55.96;99172.97;2257971;78;21104;-78
2021/04/18 10:12:28;;;;;;;15.85;13.32;;;;;;;12.96;53.71;99177.64;2258212;79;21131;-78
2021/04/18 10:15:29;;;;;;;17.10;13.85;;;;;;;12.87;54.64;99180.19;2258288;79;21061;-78
2021/04/18 10:18:30;;;;;;;14.05;12.65;;;;;;;12.85;53.27;99176.68;2258414;79;21378;-78
2021/04/18 10:21:31;;;;;;;13.98;12.55;;;;;;;12.75;53.19;99175.73;2258340;79;21088;-78
2021/04/18 10:24:32;;;;;;;15.15;13.58;;;;;;;12.71;54.46;99176.56;2258008;79;21053;-78
2021/04/18 10:27:35;;;;;;;20.72;16.77;;;;;;;12.68;53.95;99172.61;2258021;78;21106;-78
2021/04/18 10:30:36;;;;;;;25.15;17.12;;;;;;;12.47;54.34;99168.92;2258141;79;21097;-78
2021/04/18 10:33:37;;;;;;;16.17;14.15;;;;;;;12.50;55.23;99164.59;2257926;79;21120;-78
2021/04/18 10:36:38;;;;;;;14.35;12.03;;;;;;;12.71;55.10;99172.64;2237449;79;21116;-78
2021/04/18 10:39:39;;;;;;;13.10;11.68;;;;;;;12.83;53.96;99166.62;2226467;80;21364;-78
2021/04/18 10:42:40;;;;;;;15.55;13.55;;;;;;;12.91;53.77;99163.63;2226410;80;21106;-77
2021/04/18 10:45:41;;;;;;;15.65;13.93;;;;;;;13.00;54.09;99164.13;2226490;79;21054;-78
2021/04/18 10:48:42;;;;;;;15.10;13.50;;;;;;;13.10;53.60;99161.17;2226616;80;21094;-78
2021/04/18 10:51:43;;;;;;;14.83;12.90;;;;;;;13.25;53.61;99162.61;2226473;80;21082;-78
2021/04/18 10:54:44;;;;;;;14.10;12.60;;;;;;;13.38;53.58;99157.45;2226663;80;21134;-78
2021/04/18 10:57:45;;;;;;;13.03;11.73;;;;;;;13.49;52.44;99157.94;2226551;80;21114;-78
2021/04/18 11:00:46;;;;;;;13.40;12.00;;;;;;;13.64;51.97;99161.52;2226502;80;21086;-78
2021/04/18 11:03:47;;;;;;;14.07;12.68;;;;;;;13.79;52.48;99154.14;2226873;80;21125;-79
2021/04/18 11:06:48;;;;;;;15.10;13.13;;;;;;;14.04;52.39;99163.00;2226558;80;21105;-78
2021/04/18 11:09:49;;;;;;;14.95;12.70;;;;;;;14.31;51.54;99156.94;2226426;80;21085;-78
2021/04/18 11:12:50;;;;;;;15.55;13.90;;;;;;;14.59;51.64;99160.08;2226736;80;21177;-79
2021/04/18 11:15:51;;;;;;;14.68;13.15;;;;;;;14.76;51.30;99158.80;2226579;80;21121;-78
2021/04/18 11:18:52;;;;;;;20.62;15.53;;;;;;;14.63;49.67;99152.64;2226292;80;21370;-79
2021/04/18 11:21:54;;;;;;;12.65;11.35;;;;;;;14.44;49.61;99160.06;2226487;79;21114;-78
2021/04/18 11:24:56;;;;;;;9.50;8.38;;;;;;;14.26;50.66;99156.94;2226778;80;21109;-79
2021/04/18 11:27:57;;;;;;;9.40;8.50;;;;;;;14.08;49.54;99151.64;2227188;80;21216;-79
2021/04/18 11:30:58;;;;;;;10.85;9.83;;;;;;;13.79;50.40;99150.64;2227034;80;21110;-79
2021/04/18 11:33:59;;;;;;;10.93;9.83;;;;;;;13.74;50.67;99153.25;2226454;80;21383;-78
2021/04/18 11:37:00;;;;;;;11.75;10.55;;;;;;;13.71;51.03;99152.80;2226546;79;21146;-78
2021/04/18 11:40:02;;;;;;;13.65;12.20;;;;;;;13.66;51.69;99152.34;2226721;79;21276;-79
2021/04/18 11:43:03;;;;;;;12.58;11.30;;;;;;;13.65;50.97;99150.59;2226566;80;21098;-78
2021/04/18 11:46:05;;;;;;;11.70;10.05;;;;;;;13.57;51.07;99149.67;2226604;80;21090;-78
2021/04/18 11:49:06;;;;;;;11.55;10.35;;;;;;;13.54;50.82;99150.97;2226672;80;21058;-79
2021/04/18 11:52:07;;;;;;;10.75;9.65;;;;;;;13.47;50.27;99148.75;2226501;80;21403;-78
2021/04/18 11:55:09;;;;;;;11.03;9.93;;;;;;;13.41;49.78;99147.84;2226246;80;21129;-78
2021/04/18 11:58:11;;;;;;;10.58;8.70;;;;;;;13.29;49.89;99153.47;2226975;80;21117;-79
2021/04/18 12:01:13;;;;;;;17.62;14.07;;;;;;;13.26;50.40;99150.83;2226425;79;21398;-78
2021/04/18 12:04:14;;;;;;;10.93;9.50;;;;;;;13.19;51.19;99152.97;2226997;80;21126;-80
2021/04/18 12:07:15;;;;;;;13.95;9.68;;;;;;;13.26;51.12;99156.06;2227100;80;21109;-79
2021/04/18 12:10:18;;;;;;;9.33;8.30;;;;;;;13.41;50.92;99147.84;2226653;80;22009;-79
2021/04/18 12:13:19;;;;;;;10.38;9.28;;;;;;;13.44;49.84;99146.55;2226827;80;21138;-79
2021/04/18 12:16:20;;;;;;;12.07;8.28;;;;;;;13.49;49.62;99140.89;2226568;80;21105;-79
2021/04/18 12:19:21;;;;;;;9.83;8.60;;;;;;;13.69;49.27;99149.73;2226830;79;21252;-79
2021/04/18 12:22:22;;;;;;;9.58;8.68;;;;;;;13.88;49.05;99139.78;2226756;80;21383;-78
2021/04/18 12:25:23;;;;;;;9.35;8.45;;;;;;;14.05;48.99;99142.45;2226847;80;21138;-79
2021/04/18 12:28:24;;;;;;;8.58;7.78;;;;;;;14.28;48.49;99138.13;2226900;80;21086;-77
2021/04/18 12:31:26;;;;;;;9.00;8.05;;;;;;;14.45;47.97;99139.48;2226672;79;21085;-79
2021/04/18 12:34:27;;;;;;;8.40;7.50;;;;;;;14.57;47.97;99134.25;2226929;80;21149;-78
2021/04/18 12:37:28;;;;;;;8.58;7.67;;;;;;;14.71;48.42;99139.50;2249899;79;21140;-78
2021/04/18 12:40:29;;;;;;;8.65;7.85;;;;;;;14.76;47.58;99137.78;2258279;79;21061;-78
2021/04/18 12:43:30;;;;;;;9.00;8.10;;;;;;;14.57;47.43;99135.55;2257987;79;21374;-79
2021/04/18 12:46:31;;;;;;;8.85;7.95;;;;;;;14.46;47.92;99130.73;2258481;78;21092;-79
2021/04/18 12:49:32;;;;;;;8.60;7.80;;;;;;;14.44;48.24;99129.86;2258166;79;21123;-78
2021/04/18 12:52:33;;;;;;;47.25;14.80;;;;;;;14.65;48.48;99125.05;2258028;79;21105;-78
2021/04/18 12:55:34;;;;;;;583.20;206.28;;;;;;;15.59;52.29;99126.68;2257988;79;21371;-77
2021/04/18 12:58:35;;;;;;;84.62;26.27;;;;;;;17.75;47.60;99117.59;2257879;79;21104;-78
2021/04/18 13:01:36;;;;;;;16.70;13.48;;;;;;;19.01;42.98;99109.55;2257816;79;21116;-78
2021/04/18 13:04:37;;;;;;;12.68;10.35;;;;;;;19.14;42.61;99105.80;2257689;79;21389;-78
2021/04/18 13:07:39;;;;;;;16.57;12.03;;;;;;;19.08;42.24;99106.79;2258192;79;21108;-78
2021/04/18 13:10:40;;;;;;;12.33;11.12;;;;;;;18.86;41.60;99106.72;2258402;79;21117;-78
2021/04/18 13:13:41;;;;;;;109.12;34.53;;;;;;;19.85;40.95;99101.33;2258081;79;21422;-78
2021/04/18 13:16:42;;;;;;;58.13;21.50;;;;;;;20.72;39.71;99102.02;2257855;79;21215;-77
2021/04/18 13:19:43;;;;;;;8.90;7.37;;;;;;;21.50;37.18;99088.45;2258041;79;21223;-78
2021/04/18 13:22:44;;;;;;;180.93;46.10;;;;;;;21.09;36.73;99088.70;2259165;79;21085;-77
2021/04/18 13:25:45;;;;;;;15.63;9.90;;;;;;;19.82;36.62;99084.17;2258096;79;21092;-79
2021/04/18 13:28:46;;;;;;;24.92;13.38;;;;;;;19.53;36.70;99086.98;2258138;79;21378;-78
2021/04/18 13:31:47;;;;;;;11.68;9.35;;;;;;;19.37;37.40;99086.39;2258300;79;21327;-78
2021/04/18 13:34:49;;;;;;;9.68;8.78;;;;;;;19.22;38.90;99092.43;2257876;79;21128;-78
2021/04/18 13:37:50;;;;;;;262.57;97.00;;;;;;;19.40;38.55;99093.39;2258109;79;21259;-78
2021/04/18 13:40:51;;;;;;;341.20;98.90;;;;;;;19.57;38.84;99089.12;2257943;79;21061;-78
2021/04/18 13:43:52;;;;;;;118.33;34.55;;;;;;;19.62;38.74;99090.77;2258200;79;21137;-77
2021/04/18 13:46:54;;;;;;;154.15;43.75;;;;;;;19.16;38.74;99093.87;2259301;78;21101;-80
2021/04/18 13:49:56;;;;;;;23.80;11.88;;;;;;;18.90;38.26;99091.22;2258599;79;21500;-78
2021/04/18 13:52:57;;;;;;;8.38;7.58;;;;;;;18.46;38.75;99091.48;2259406;79;21144;-80
2021/04/18 13:55:59;;;;;;;7.75;6.95;;;;;;;17.81;38.30;99093.74;2258851;79;21061;-79
2021/04/18 13:59:00;;;;;;;8.03;7.22;;;;;;;16.86;38.58;99085.98;2259489;79;21347;-79